createdAt,value
2022-09-30T00:01:07.153Z,9.80
2022-09-30T00:03:33.858Z,8.80
2022-09-30T00:06:07.894Z,14.60
2022-09-30T00:08:36.595Z,10.75
2022-09-30T00:11:06.331Z,8.55
2022-09-30T00:13:35.533Z,8.70
2022-09-30T00:16:02.581Z,7.40
2022-09-30T00:18:29.829Z,7.22
2022-09-30T00:20:56.891Z,9.43
2022-09-30T00:23:24.735Z,9.02
2022-09-30T00:25:51.883Z,11.80
2022-09-30T00:28:18.548Z,9.00
2022-09-30T00:30:45.345Z,10.25
2022-09-30T00:33:11.989Z,14.73
2022-09-30T00:35:38.617Z,9.30
2022-09-30T00:38:05.306Z,11.45
2022-09-30T00:40:32.030Z,11.45
2022-09-30T00:43:00.110Z,11.57
2022-09-30T00:45:27.900Z,11.20
2022-09-30T00:48:05.675Z,10.90
2022-09-30T00:50:47.111Z,10.43
2022-09-30T00:53:21.787Z,13.43
2022-09-30T00:55:55.758Z,8.35
2022-09-30T00:58:31.836Z,11.30
2022-09-30T01:01:01.777Z,10.13
2022-09-30T01:03:31.729Z,12.80
2022-09-30T01:05:58.426Z,10.10
2022-09-30T01:08:25.943Z,10.05
2022-09-30T01:10:52.608Z,7.75
2022-09-30T01:13:20.407Z,9.15
2022-09-30T01:15:50.696Z,10.73
2022-09-30T01:18:38.849Z,10.43
2022-09-30T01:21:50.053Z,8.68
2022-09-30T01:24:54.923Z,12.23
2022-09-30T01:27:33.490Z,11.68
2022-09-30T01:30:07.720Z,11.15
2022-09-30T01:32:53.498Z,8.07
2022-09-30T01:35:41.733Z,10.90
2022-09-30T01:38:25.186Z,12.18
2022-09-30T01:41:04.971Z,9.30
2022-09-30T01:43:34.610Z,9.52
2022-09-30T01:46:10.446Z,7.65
2022-09-30T01:48:57.039Z,10.77
2022-09-30T01:51:34.620Z,8.20
2022-09-30T01:54:07.224Z,8.45
2022-09-30T01:56:48.009Z,9.05
2022-09-30T01:59:25.778Z,8.27
2022-09-30T02:01:57.498Z,11.82
2022-09-30T02:04:32.255Z,11.17
2022-09-30T02:07:03.544Z,15.15
2022-09-30T02:09:39.282Z,11.18
2022-09-30T02:12:09.576Z,8.95
2022-09-30T02:14:43.078Z,12.20
2022-09-30T02:17:34.096Z,10.40
2022-09-30T02:20:04.785Z,15.10
2022-09-30T02:22:40.806Z,16.08
2022-09-30T02:25:09.915Z,11.32
2022-09-30T02:27:42.504Z,12.23
2022-09-30T02:30:10.430Z,15.40
2022-09-30T02:33:00.130Z,8.65
2022-09-30T02:35:50.543Z,10.70
2022-09-30T02:38:41.692Z,10.82
2022-09-30T02:41:37.858Z,14.75
2022-09-30T02:44:04.922Z,12.73
2022-09-30T02:46:35.330Z,8.80
2022-09-30T02:49:08.332Z,8.57
2022-09-30T02:51:39.850Z,11.73
2022-09-30T02:54:14.844Z,7.70
2022-09-30T02:57:00.245Z,10.38
2022-09-30T02:59:27.589Z,9.18
2022-09-30T03:01:54.532Z,9.82
2022-09-30T03:04:23.526Z,13.07
2022-09-30T03:06:50.652Z,9.38
2022-09-30T03:09:17.492Z,8.93
2022-09-30T03:11:45.027Z,6.75
2022-09-30T03:14:32.675Z,9.52
2022-09-30T03:17:29.425Z,10.88
2022-09-30T03:20:14.753Z,9.43
2022-09-30T03:23:09.801Z,6.85
2022-09-30T03:25:45.512Z,10.07
2022-09-30T03:28:20.981Z,9.48
2022-09-30T03:30:56.089Z,10.02
2022-09-30T03:33:26.019Z,10.10
2022-09-30T03:36:20.696Z,12.90
2022-09-30T03:38:49.630Z,9.35
2022-09-30T03:41:31.466Z,8.93
2022-09-30T03:44:03.442Z,8.77
2022-09-30T03:46:43.670Z,9.02
2022-09-30T03:49:15.186Z,7.68
2022-09-30T03:51:42.436Z,9.27
2022-09-30T03:54:11.318Z,7.75
2022-09-30T03:56:42.548Z,8.73
2022-09-30T03:59:15.483Z,9.88
2022-09-30T04:01:42.414Z,8.55
2022-09-30T04:04:09.170Z,9.95
2022-09-30T04:06:35.873Z,9.20
2022-09-30T04:09:02.610Z,12.23
2022-09-30T04:11:29.408Z,8.90
2022-09-30T04:13:56.439Z,12.20
2022-09-30T04:16:23.371Z,7.15
2022-09-30T04:18:50.907Z,10.75
2022-09-30T04:21:17.583Z,11.30
2022-09-30T04:23:44.366Z,33.40
2022-09-30T04:26:16.787Z,26.55
2022-09-30T04:28:43.982Z,25.05
2022-09-30T04:31:12.039Z,26.50
2022-09-30T04:33:39.284Z,17.80
2022-09-30T04:36:06.731Z,9.80
2022-09-30T04:38:34.262Z,9.30
2022-09-30T04:41:04.057Z,12.10
2022-09-30T04:43:30.897Z,13.90
2022-09-30T04:46:03.801Z,9.43
2022-09-30T04:48:31.460Z,20.90
2022-09-30T04:51:01.849Z,10.57
2022-09-30T04:53:40.033Z,8.70
2022-09-30T04:56:11.841Z,10.98
2022-09-30T04:58:39.028Z,44.55
2022-09-30T05:01:09.863Z,13.73
2022-09-30T05:03:37.110Z,10.83
2022-09-30T05:06:04.377Z,31.13
2022-09-30T05:08:33.852Z,31.77
2022-09-30T05:11:05.942Z,17.57
2022-09-30T05:13:35.190Z,13.82
2022-09-30T05:16:02.325Z,14.37
2022-09-30T05:18:29.211Z,18.00
2022-09-30T05:20:57.619Z,21.67
2022-09-30T05:23:25.643Z,38.07
2022-09-30T05:25:52.800Z,14.90
2022-09-30T05:28:20.095Z,17.70
2022-09-30T05:30:47.041Z,24.80
2022-09-30T05:33:14.273Z,33.47
2022-09-30T05:35:42.119Z,28.57
2022-09-30T05:38:10.104Z,26.53
2022-09-30T05:40:40.405Z,57.47
2022-09-30T05:43:07.712Z,35.47
2022-09-30T05:45:34.655Z,36.93
2022-09-30T05:48:01.941Z,27.70
2022-09-30T05:50:28.666Z,32.47
2022-09-30T05:52:55.499Z,32.03
2022-09-30T05:55:25.023Z,61.77
2022-09-30T05:57:52.694Z,14.30
2022-09-30T06:00:20.031Z,13.70
2022-09-30T06:02:47.404Z,15.03
2022-09-30T06:05:14.127Z,10.67
2022-09-30T06:07:40.810Z,28.77
2022-09-30T06:10:12.276Z,27.67
2022-09-30T06:12:39.475Z,17.37
2022-09-30T06:15:07.009Z,15.77
2022-09-30T06:17:33.996Z,22.90
2022-09-30T06:20:01.150Z,22.43
2022-09-30T06:22:27.789Z,13.10
2022-09-30T06:24:55.427Z,15.07
2022-09-30T06:27:22.324Z,41.80
2022-09-30T06:29:49.440Z,25.38
2022-09-30T06:32:16.097Z,20.80
2022-09-30T06:34:42.739Z,17.33
2022-09-30T06:37:09.303Z,74.70
2022-09-30T06:39:35.975Z,23.50
2022-09-30T06:42:03.059Z,13.47
2022-09-30T06:44:30.914Z,17.37
2022-09-30T06:46:59.855Z,14.37
2022-09-30T06:49:32.443Z,17.63
2022-09-30T06:52:04.217Z,14.98
2022-09-30T06:54:30.854Z,20.58
2022-09-30T06:56:57.887Z,17.55
2022-09-30T06:59:24.845Z,21.33
2022-09-30T07:01:51.702Z,20.73
2022-09-30T07:04:18.358Z,31.88
2022-09-30T07:06:46.159Z,25.88
2022-09-30T07:09:13.085Z,18.58
2022-09-30T07:11:40.064Z,17.02
2022-09-30T07:14:07.879Z,34.95
2022-09-30T07:16:34.616Z,29.60
2022-09-30T07:19:02.340Z,19.48
2022-09-30T07:21:30.301Z,37.45
2022-09-30T07:23:58.962Z,34.35
2022-09-30T07:26:27.671Z,29.75
2022-09-30T07:28:54.419Z,24.27
2022-09-30T07:31:33.638Z,47.67
2022-09-30T07:34:02.718Z,28.92
2022-09-30T07:36:34.205Z,21.45
2022-09-30T07:39:06.020Z,19.95
2022-09-30T07:41:34.620Z,19.08
2022-09-30T07:44:01.618Z,21.98
2022-09-30T07:46:30.988Z,17.67
2022-09-30T07:49:01.596Z,17.55
2022-09-30T07:51:31.615Z,19.75
2022-09-30T07:54:02.255Z,18.08
2022-09-30T07:56:37.070Z,20.58
2022-09-30T07:59:17.040Z,18.77
2022-09-30T08:01:43.739Z,20.38
2022-09-30T08:04:11.934Z,21.17
2022-09-30T08:06:45.378Z,16.92
2022-09-30T08:09:13.590Z,19.67
2022-09-30T08:11:41.440Z,17.75
2022-09-30T08:14:08.088Z,15.38
2022-09-30T08:16:34.800Z,16.85
2022-09-30T08:19:02.321Z,18.08
2022-09-30T08:21:29.637Z,18.05
2022-09-30T08:23:57.360Z,18.58
2022-09-30T08:26:24.779Z,21.55
2022-09-30T08:28:51.495Z,18.15
2022-09-30T08:31:23.226Z,17.58
2022-09-30T08:33:50.574Z,16.70
2022-09-30T08:36:19.496Z,18.13
2022-09-30T08:38:46.170Z,18.98
2022-09-30T08:41:24.962Z,18.73
2022-09-30T08:44:28.253Z,15.45
2022-09-30T08:47:03.047Z,19.70
2022-09-30T08:49:54.626Z,17.58
2022-09-30T08:52:37.437Z,17.90
2022-09-30T08:55:21.063Z,19.63
2022-09-30T08:57:47.998Z,19.27
2022-09-30T09:00:17.500Z,23.77
2022-09-30T09:02:56.000Z,19.58
2022-09-30T09:05:52.591Z,18.88
2022-09-30T09:08:38.147Z,19.17
2022-09-30T09:11:17.742Z,21.25
2022-09-30T09:13:56.362Z,20.40
2022-09-30T09:16:36.993Z,19.20
2022-09-30T09:19:12.762Z,17.45
2022-09-30T09:22:00.712Z,17.15
2022-09-30T09:24:34.133Z,16.73
2022-09-30T09:27:13.242Z,15.50
2022-09-30T09:29:50.828Z,13.95
2022-09-30T09:32:18.488Z,12.57
2022-09-30T09:34:49.550Z,12.25
2022-09-30T09:37:53.593Z,10.98
2022-09-30T09:40:59.063Z,15.13
2022-09-30T09:43:40.971Z,16.92
2022-09-30T09:46:22.928Z,10.67
2022-09-30T09:49:21.000Z,12.60
2022-09-30T09:52:15.018Z,14.40
2022-09-30T09:54:43.890Z,12.15
2022-09-30T09:57:12.846Z,11.13
2022-09-30T09:59:55.754Z,11.75
2022-09-30T10:05:11.613Z,14.75
2022-09-30T10:07:38.227Z,10.93
2022-09-30T10:10:23.457Z,10.90
2022-09-30T10:12:50.708Z,10.23
2022-09-30T10:15:27.765Z,11.18
2022-09-30T10:17:57.209Z,11.40
2022-09-30T10:20:34.773Z,10.57
2022-09-30T10:23:08.700Z,11.82
2022-09-30T10:25:35.686Z,9.80
2022-09-30T10:28:04.738Z,10.35
2022-09-30T10:30:39.006Z,15.98
2022-09-30T10:33:22.641Z,10.70
2022-09-30T10:36:11.969Z,10.68
2022-09-30T10:38:53.303Z,12.05
2022-09-30T10:41:31.271Z,17.02
2022-09-30T10:44:00.574Z,9.27
2022-09-30T10:46:31.949Z,10.35
2022-09-30T10:49:00.347Z,11.45
2022-09-30T10:51:34.144Z,9.02
2022-09-30T10:54:05.703Z,9.20
2022-09-30T10:56:42.148Z,10.95
2022-09-30T10:59:19.876Z,8.55
2022-09-30T11:01:52.617Z,7.78
2022-09-30T11:04:26.828Z,7.07
2022-09-30T11:07:00.022Z,8.23
2022-09-30T11:09:37.456Z,8.93
2022-09-30T11:12:42.111Z,7.28
2022-09-30T11:15:23.288Z,7.18
2022-09-30T11:17:55.112Z,5.57
2022-09-30T11:20:25.707Z,10.02
2022-09-30T11:23:00.711Z,5.82
2022-09-30T11:25:30.051Z,6.13
2022-09-30T11:27:58.685Z,6.03
2022-09-30T11:31:07.270Z,5.25
2022-09-30T11:33:52.649Z,3.17
2022-09-30T11:36:31.400Z,4.53
2022-09-30T11:39:19.758Z,3.20
2022-09-30T11:41:54.845Z,3.25
2022-09-30T11:44:36.174Z,4.57
2022-09-30T11:47:31.977Z,2.35
2022-09-30T11:50:20.001Z,2.70
2022-09-30T11:53:13.821Z,2.38
2022-09-30T11:56:34.671Z,4.03
2022-09-30T11:59:12.123Z,4.35
2022-09-30T12:01:48.128Z,2.95
2022-09-30T12:04:21.225Z,4.03
2022-09-30T12:07:15.181Z,5.03
2022-09-30T12:09:54.000Z,2.63
2022-09-30T12:12:20.735Z,1.90
2022-09-30T12:15:07.724Z,3.33
2022-09-30T12:17:39.287Z,3.80
2022-09-30T12:20:31.022Z,3.60
2022-09-30T12:23:24.144Z,2.95
2022-09-30T12:26:17.259Z,1.95
2022-09-30T12:29:08.620Z,1.77
2022-09-30T12:32:09.554Z,1.50
2022-09-30T12:35:03.923Z,3.95
2022-09-30T12:37:40.215Z,1.73
2022-09-30T12:40:28.522Z,27.83
2022-09-30T12:43:04.802Z,3.67
2022-09-30T12:45:36.748Z,2.42
2022-09-30T12:48:11.066Z,1.73
2022-09-30T12:50:45.358Z,2.30
2022-09-30T12:53:22.431Z,2.70
2022-09-30T12:55:49.354Z,3.03
2022-09-30T12:58:29.817Z,3.47
2022-09-30T13:01:16.620Z,3.13
2022-09-30T13:03:50.632Z,1.95
2022-09-30T13:06:21.066Z,1.90
2022-09-30T13:08:57.254Z,5.55
2022-09-30T13:11:37.443Z,2.85
2022-09-30T13:14:37.975Z,1.48
2022-09-30T13:17:07.608Z,1.63
2022-09-30T13:19:44.901Z,1.20
2022-09-30T13:22:30.194Z,4.60
2022-09-30T13:25:06.753Z,4.57
2022-09-30T13:27:46.722Z,1.33
2022-09-30T13:30:13.361Z,2.50
2022-09-30T13:32:42.632Z,2.47
2022-09-30T13:35:31.893Z,4.55
2022-09-30T13:38:13.787Z,2.10
2022-09-30T13:41:06.332Z,4.82
2022-09-30T13:43:39.175Z,1.85
2022-09-30T13:46:17.724Z,3.72
2022-09-30T13:49:00.776Z,2.28
2022-09-30T13:51:29.858Z,1.88
2022-09-30T13:54:00.300Z,1.52
2022-09-30T13:56:30.767Z,1.02
2022-09-30T13:59:15.266Z,1.75
2022-09-30T14:02:22.260Z,2.00
2022-09-30T14:05:23.537Z,1.50
2022-09-30T14:08:12.433Z,1.38
2022-09-30T14:10:57.149Z,2.90
2022-09-30T14:14:02.432Z,2.67
2022-09-30T14:16:48.838Z,4.63
2022-09-30T14:19:39.429Z,1.05
2022-09-30T14:22:07.887Z,2.38
2022-09-30T14:24:37.852Z,1.95
2022-09-30T14:27:35.761Z,1.63
2022-09-30T14:30:09.477Z,4.32
2022-09-30T14:32:50.698Z,2.20
2022-09-30T14:35:23.093Z,3.60
2022-09-30T14:38:15.357Z,1.77
2022-09-30T14:40:50.219Z,1.30
2022-09-30T14:43:20.566Z,3.22
2022-09-30T14:45:51.787Z,2.92
2022-09-30T14:48:24.234Z,2.35
2022-09-30T14:51:05.059Z,1.85
2022-09-30T14:53:39.068Z,2.97
2022-09-30T14:56:23.364Z,3.72
2022-09-30T14:58:53.775Z,2.33
2022-09-30T15:01:25.989Z,2.15
2022-09-30T15:03:56.576Z,3.25
2022-09-30T15:06:26.046Z,2.25
2022-09-30T15:09:01.084Z,2.65
2022-09-30T15:11:28.938Z,2.83
2022-09-30T15:14:14.976Z,1.10
2022-09-30T15:16:50.691Z,2.53
2022-09-30T15:19:22.759Z,4.18
2022-09-30T15:21:52.021Z,2.30
2022-09-30T15:24:20.520Z,1.90
2022-09-30T15:26:49.173Z,1.80
2022-09-30T15:29:16.735Z,2.60
2022-09-30T15:31:57.328Z,2.30
2022-09-30T15:34:25.695Z,3.20
2022-09-30T15:37:11.779Z,1.75
2022-09-30T15:40:05.095Z,2.08
2022-09-30T15:42:49.415Z,2.67
2022-09-30T15:45:35.835Z,2.10
2022-09-30T15:48:06.680Z,2.25
2022-09-30T15:50:38.425Z,3.83
2022-09-30T15:53:13.057Z,2.95
2022-09-30T15:55:44.403Z,4.57
2022-09-30T15:58:29.727Z,4.38
2022-09-30T16:01:09.248Z,2.50
2022-09-30T16:03:36.144Z,4.97
2022-09-30T16:06:43.224Z,6.07
2022-09-30T16:09:31.701Z,3.78
2022-09-30T16:12:13.421Z,5.32
2022-09-30T16:15:00.143Z,2.03
2022-09-30T16:17:39.535Z,2.63
2022-09-30T16:20:22.562Z,2.80
2022-09-30T16:22:56.527Z,1.58
2022-09-30T16:25:32.938Z,5.45
2022-09-30T16:27:59.706Z,2.97
2022-09-30T16:30:26.935Z,3.17
2022-09-30T16:32:58.201Z,2.75
2022-09-30T16:35:27.065Z,3.13
2022-09-30T16:38:06.487Z,3.17
2022-09-30T16:40:35.803Z,4.22
2022-09-30T16:43:07.521Z,2.80
2022-09-30T16:45:35.594Z,2.10
2022-09-30T16:48:09.170Z,4.55
2022-09-30T16:50:41.638Z,2.70
2022-09-30T16:53:10.682Z,4.47
2022-09-30T16:55:37.530Z,3.38
2022-09-30T16:58:05.554Z,5.18
2022-09-30T17:00:33.019Z,5.00
2022-09-30T17:02:59.735Z,2.65
2022-09-30T17:05:26.909Z,3.85
2022-09-30T17:07:58.897Z,3.25
2022-09-30T17:10:33.283Z,2.45
2022-09-30T17:13:00.433Z,4.35
2022-09-30T17:15:28.919Z,2.90
2022-09-30T17:17:55.848Z,6.15
2022-09-30T17:20:22.620Z,9.43
2022-09-30T17:22:50.158Z,11.07
2022-09-30T17:25:17.346Z,10.05
2022-09-30T17:27:48.953Z,11.23
2022-09-30T17:30:16.175Z,10.15
2022-09-30T17:32:42.788Z,8.38
2022-09-30T17:35:09.550Z,9.70
2022-09-30T17:37:38.532Z,7.38
2022-09-30T17:40:26.409Z,7.13
2022-09-30T17:43:11.231Z,8.05
2022-09-30T17:45:40.283Z,9.40
2022-09-30T17:48:11.870Z,7.22
2022-09-30T17:50:46.795Z,7.88
2022-09-30T17:53:14.284Z,6.15
2022-09-30T17:55:41.713Z,5.78
2022-09-30T17:58:09.378Z,7.10
2022-09-30T18:00:36.543Z,11.23
2022-09-30T18:03:03.397Z,7.05
2022-09-30T18:05:31.911Z,4.63
2022-09-30T18:07:59.018Z,5.35
2022-09-30T18:10:26.247Z,2.83
2022-09-30T18:12:54.284Z,4.30
2022-09-30T18:15:22.332Z,5.35
2022-09-30T18:17:49.023Z,5.43
2022-09-30T18:20:17.191Z,5.50
2022-09-30T18:22:45.310Z,6.35
2022-09-30T18:25:20.582Z,7.82
2022-09-30T18:27:51.590Z,9.98
2022-09-30T18:30:20.191Z,5.75
2022-09-30T18:32:49.445Z,5.82
2022-09-30T18:35:18.542Z,15.80
2022-09-30T18:37:47.314Z,4.53
2022-09-30T18:40:16.782Z,8.65
2022-09-30T18:42:44.379Z,5.45
2022-09-30T18:45:12.688Z,7.30
2022-09-30T18:47:42.364Z,7.35
2022-09-30T18:50:13.055Z,11.80
2022-09-30T18:52:40.742Z,8.05
2022-09-30T18:55:09.754Z,5.30
2022-09-30T18:57:36.394Z,6.70
2022-09-30T19:00:03.881Z,10.30
2022-09-30T19:02:32.434Z,6.95
2022-09-30T19:04:59.934Z,9.20
2022-09-30T19:07:27.124Z,9.32
2022-09-30T19:09:53.761Z,10.35
2022-09-30T19:12:20.922Z,9.60
2022-09-30T19:14:47.899Z,8.93
2022-09-30T19:17:14.587Z,10.27
2022-09-30T19:19:41.439Z,9.45
2022-09-30T19:22:08.586Z,9.32
2022-09-30T19:24:35.999Z,9.57
2022-09-30T19:27:02.972Z,8.20
2022-09-30T19:29:29.619Z,8.70
2022-09-30T19:31:57.542Z,8.25
2022-09-30T19:34:31.783Z,10.95
2022-09-30T19:36:59.952Z,11.27
2022-09-30T19:39:38.085Z,10.75
2022-09-30T19:42:08.571Z,11.95
2022-09-30T19:44:36.622Z,9.65
2022-09-30T19:47:03.247Z,9.95
2022-09-30T19:49:31.171Z,8.48
2022-09-30T19:51:57.776Z,12.30
2022-09-30T19:54:37.266Z,10.63
2022-09-30T19:57:06.744Z,7.88
2022-09-30T19:59:34.010Z,10.20
2022-09-30T20:02:01.251Z,8.30
2022-09-30T20:04:29.102Z,10.77
2022-09-30T20:06:56.031Z,11.57
2022-09-30T20:09:22.704Z,11.68
2022-09-30T20:11:49.280Z,11.02
2022-09-30T20:14:34.292Z,10.68
2022-09-30T20:17:00.915Z,9.10
2022-09-30T20:19:27.518Z,9.68
2022-09-30T20:21:54.562Z,14.30
2022-09-30T20:24:21.465Z,11.48
2022-09-30T20:26:48.373Z,14.82
2022-09-30T20:29:15.193Z,9.50
2022-09-30T20:31:42.879Z,11.85
2022-09-30T20:34:13.511Z,10.40
2022-09-30T20:36:40.610Z,13.52
2022-09-30T20:39:07.968Z,11.80
2022-09-30T20:41:36.889Z,10.63
2022-09-30T20:44:04.640Z,11.77
2022-09-30T20:46:32.097Z,10.65
2022-09-30T20:48:59.882Z,11.63
2022-09-30T20:51:27.576Z,10.55
2022-09-30T20:53:55.541Z,10.20
2022-09-30T20:56:23.172Z,11.63
2022-09-30T20:58:50.274Z,13.32
2022-09-30T21:01:19.343Z,10.90
2022-09-30T21:03:51.427Z,15.30
2022-09-30T21:06:20.678Z,11.57
2022-09-30T21:08:48.994Z,12.90
2022-09-30T21:11:15.595Z,12.57
2022-09-30T21:13:43.428Z,12.70
2022-09-30T21:16:12.100Z,11.75
2022-09-30T21:18:38.726Z,15.93
2022-09-30T21:21:05.872Z,13.30
2022-09-30T21:23:34.148Z,13.35
2022-09-30T21:26:05.570Z,13.38
2022-09-30T21:28:32.714Z,17.50
2022-09-30T21:30:59.803Z,12.68
2022-09-30T21:33:26.422Z,16.08
2022-09-30T21:36:02.520Z,14.18
2022-09-30T21:38:29.631Z,14.07
2022-09-30T21:41:01.438Z,12.43
2022-09-30T21:43:32.158Z,11.90
2022-09-30T21:46:05.481Z,17.17
2022-09-30T21:48:35.274Z,14.00
2022-09-30T21:51:02.782Z,13.75
2022-09-30T21:53:29.564Z,14.38
2022-09-30T21:55:57.491Z,17.85
2022-09-30T21:58:25.379Z,13.38
2022-09-30T22:00:53.303Z,16.23
2022-09-30T22:03:21.386Z,15.05
2022-09-30T22:05:55.055Z,17.45
2022-09-30T22:08:22.317Z,15.98
2022-09-30T22:10:51.113Z,13.80
2022-09-30T22:13:18.772Z,15.02
2022-09-30T22:15:46.866Z,12.93
2022-09-30T22:18:18.218Z,12.50
2022-09-30T22:20:45.143Z,14.25
2022-09-30T22:23:11.853Z,17.25
2022-09-30T22:25:38.836Z,18.55
2022-09-30T22:28:05.562Z,19.90
2022-09-30T22:30:32.531Z,13.30
2022-09-30T22:33:17.786Z,13.18
2022-09-30T22:36:03.025Z,12.45
2022-09-30T22:38:30.091Z,16.23
2022-09-30T22:40:59.376Z,12.50
2022-09-30T22:43:26.702Z,14.48
2022-09-30T22:46:08.192Z,10.15
2022-09-30T22:48:35.384Z,12.05
2022-09-30T22:51:02.146Z,12.35
2022-09-30T22:53:29.254Z,13.73
2022-09-30T22:55:58.601Z,12.70
2022-09-30T22:58:26.410Z,13.55
2022-09-30T23:00:58.688Z,15.45
2022-09-30T23:03:25.903Z,13.93
2022-09-30T23:05:53.444Z,12.38
2022-09-30T23:10:49.914Z,12.75
2022-09-30T23:13:18.715Z,15.15
2022-09-30T23:15:45.381Z,14.02
2022-09-30T23:18:11.990Z,10.98
2022-09-30T23:20:40.866Z,15.20
2022-09-30T23:23:07.750Z,13.05
2022-09-30T23:25:34.803Z,14.38
2022-09-30T23:28:01.675Z,15.60
2022-09-30T23:30:28.346Z,16.10
2022-09-30T23:32:55.017Z,14.98
2022-09-30T23:35:21.596Z,12.50
2022-09-30T23:37:50.113Z,13.75
2022-09-30T23:40:16.702Z,15.43
2022-09-30T23:42:43.305Z,12.75
2022-09-30T23:45:10.329Z,15.65
2022-09-30T23:47:37.450Z,15.48
2022-09-30T23:50:04.237Z,13.43
2022-09-30T23:52:30.821Z,14.05
2022-09-30T23:54:57.436Z,13.38
2022-09-30T23:57:24.098Z,16.42
2022-09-30T23:59:50.718Z,15.60
